Time;durP1;ratioP1;P1;durP2;ratioP2;P2;SDS_P1;SDS_P2;PMS_P1;PMS_P2;Temp;Humidity;BMP_temperature;BMP_pressure;BME280_temperature;BME280_humidity;BME280_pressure;Samples;Min_cycle;Max_cycle;Signal;HPM_P1;HPM_P2
2023/06/10 00:01:55;;;;;;;13.35;6.10;;;;;;;;;;5095258;28;20050;-69
2023/06/10 00:04:22;;;;;;;10.48;5.50;;;;;;;;;;5128942;27;20043;-69
2023/06/10 00:06:49;;;;;;;12.48;5.75;;;;;;;;;;5109040;27;20051;-69
2023/06/10 00:09:15;;;;;;;10.50;5.68;;;;;;;;;;5128042;28;20045;-69
2023/06/10 00:11:42;;;;;;;10.95;6.03;;;;;;;;;;5104083;28;20043;-69
2023/06/10 00:14:08;;;;;;;10.25;5.57;;;;;;;;;;5107862;27;20073;-69
2023/06/10 00:16:35;;;;;;;11.10;5.05;;;;;;;;;;5110393;28;20050;-69
2023/06/10 00:19:03;;;;;;;9.82;5.28;;;;;;;;;;5113263;28;21231;-69
2023/06/10 00:21:29;;;;;;;12.80;5.68;;;;;;;;;;5093725;28;20051;-69
2023/06/10 00:23:56;;;;;;;10.35;5.70;;;;;;;;;;5092851;28;20047;-69
2023/06/10 00:26:25;;;;;;;11.65;5.43;;;;;;;;;;5110100;27;20537;-69
2023/06/10 00:28:52;;;;;;;9.73;5.38;;;;;;;;;;5112387;27;20052;-70
2023/06/10 00:31:18;;;;;;;11.73;5.90;;;;;;;;;;5112437;27;20132;-69
2023/06/10 00:33:44;;;;;;;12.38;5.43;;;;;;;;;;5098663;28;20050;-69
2023/06/10 00:36:11;;;;;;;12.48;6.15;;;;;;;;;;5094015;28;20062;-69
2023/06/10 00:38:37;;;;;;;9.77;5.85;;;;;;;;;;5092924;28;20090;-69
2023/06/10 00:41:04;;;;;;;14.98;5.78;;;;;;;;;;5121237;27;20444;-69
2023/06/10 00:43:30;;;;;;;12.25;5.80;;;;;;;;;;5110501;28;20083;-69
2023/06/10 00:45:57;;;;;;;14.00;5.82;;;;;;;;;;5092396;28;20147;-69
2023/06/10 00:48:23;;;;;;;11.48;6.22;;;;;;;;;;5088783;28;20051;-69
2023/06/10 00:50:49;;;;;;;10.55;5.68;;;;;;;;;;5112197;28;22483;-69
2023/06/10 00:53:16;;;;;;;12.85;5.78;;;;;;;;;;5096496;27;20097;-69
2023/06/10 00:55:42;;;;;;;13.10;5.53;;;;;;;;;;5096255;27;20043;-69
2023/06/10 00:58:08;;;;;;;9.82;5.88;;;;;;;;;;5096971;27;20035;-70
2023/06/10 01:00:35;;;;;;;10.90;6.10;;;;;;;;;;5115752;27;20044;-69
2023/06/10 01:03:01;;;;;;;10.55;5.80;;;;;;;;;;5095674;27;20063;-69
2023/06/10 01:05:27;;;;;;;14.65;6.10;;;;;;;;;;5118174;27;20180;-69
2023/06/10 01:08:00;;;;;;;10.68;5.70;;;;;;;;;;5095090;27;20061;-69
2023/06/10 01:10:30;;;;;;;10.20;5.63;;;;;;;;;;5094401;27;20080;-69
2023/06/10 01:13:02;;;;;;;11.45;5.68;;;;;;;;;;5111911;27;20044;-69
2023/06/10 01:15:29;;;;;;;8.95;5.55;;;;;;;;;;5095148;27;20078;-69
2023/06/10 01:18:01;;;;;;;12.60;6.13;;;;;;;;;;5131498;27;20039;-69
2023/06/10 01:20:28;;;;;;;11.60;5.85;;;;;;;;;;5114959;27;20054;-69
2023/06/10 01:22:54;;;;;;;8.30;4.95;;;;;;;;;;5136846;27;20041;-69
2023/06/10 01:25:27;;;;;;;10.90;5.70;;;;;;;;;;5129945;27;20042;-69
2023/06/10 01:28:01;;;;;;;13.20;6.07;;;;;;;;;;5134439;27;20379;-69
2023/06/10 01:30:33;;;;;;;11.73;6.45;;;;;;;;;;5120484;27;20100;-69
2023/06/10 01:33:00;;;;;;;13.02;6.70;;;;;;;;;;5158742;27;20049;-69
2023/06/10 01:35:26;;;;;;;10.85;5.97;;;;;;;;;;5110114;27;20050;-69
2023/06/10 01:37:54;;;;;;;11.07;6.30;;;;;;;;;;5089863;28;20052;-69
2023/06/10 01:40:21;;;;;;;13.43;5.70;;;;;;;;;;5103378;27;20110;-69
2023/06/10 01:42:47;;;;;;;11.90;5.95;;;;;;;;;;5129662;27;20046;-69
2023/06/10 01:45:13;;;;;;;12.48;6.93;;;;;;;;;;5122673;27;20054;-69
2023/06/10 01:47:39;;;;;;;17.58;6.40;;;;;;;;;;5114685;27;20035;-69
2023/06/10 01:50:06;;;;;;;10.00;5.70;;;;;;;;;;5131537;27;20035;-69
2023/06/10 01:52:32;;;;;;;11.27;5.47;;;;;;;;;;5124675;27;20043;-69
2023/06/10 01:54:58;;;;;;;10.82;5.70;;;;;;;;;;5128921;27;20035;-69
2023/06/10 01:57:24;;;;;;;11.98;5.60;;;;;;;;;;5127500;27;20053;-69
2023/06/10 01:59:51;;;;;;;12.75;6.22;;;;;;;;;;5132506;27;20083;-69
2023/06/10 02:02:17;;;;;;;9.50;5.55;;;;;;;;;;5111055;27;20057;-70
2023/06/10 02:04:43;;;;;;;11.30;5.90;;;;;;;;;;5131244;27;20417;-69
2023/06/10 02:07:09;;;;;;;8.90;5.38;;;;;;;;;;5108452;27;20039;-69
2023/06/10 02:09:36;;;;;;;9.80;5.40;;;;;;;;;;5148626;27;20142;-69
2023/06/10 02:12:06;;;;;;;16.90;6.85;;;;;;;;;;5126472;27;20426;-69
2023/06/10 02:14:33;;;;;;;12.50;6.38;;;;;;;;;;5128601;27;20291;-69
2023/06/10 02:16:59;;;;;;;11.23;5.18;;;;;;;;;;5127546;27;20096;-69
2023/06/10 02:19:28;;;;;;;12.93;6.22;;;;;;;;;;5128314;27;20050;-69
2023/06/10 02:21:55;;;;;;;13.38;6.20;;;;;;;;;;5130144;27;20039;-69
2023/06/10 02:24:21;;;;;;;10.88;5.88;;;;;;;;;;5128068;27;20104;-69
2023/06/10 02:26:47;;;;;;;12.43;6.35;;;;;;;;;;5131608;27;20035;-69
2023/06/10 02:29:14;;;;;;;16.35;6.72;;;;;;;;;;5128202;27;20418;-69
2023/06/10 02:31:40;;;;;;;14.15;6.78;;;;;;;;;;5100213;27;20040;-69
2023/06/10 02:34:07;;;;;;;15.43;6.20;;;;;;;;;;5111922;27;20042;-69
2023/06/10 02:36:35;;;;;;;8.93;5.85;;;;;;;;;;5093263;27;20043;-69
2023/06/10 02:39:02;;;;;;;11.73;6.70;;;;;;;;;;5123462;27;20517;-69
2023/06/10 02:41:29;;;;;;;9.45;5.40;;;;;;;;;;5113759;27;20501;-69
2023/06/10 02:43:55;;;;;;;12.70;5.97;;;;;;;;;;5093626;28;20142;-69
2023/06/10 02:46:21;;;;;;;11.50;5.55;;;;;;;;;;5094055;28;20047;-69
2023/06/10 02:48:49;;;;;;;10.65;5.80;;;;;;;;;;5140121;27;20039;-69
2023/06/10 02:51:15;;;;;;;11.45;6.70;;;;;;;;;;5112757;27;20405;-69
2023/06/10 02:53:41;;;;;;;10.60;5.55;;;;;;;;;;5093074;27;20043;-69
2023/06/10 02:56:07;;;;;;;11.88;6.00;;;;;;;;;;5101923;27;20096;-69
2023/06/10 02:58:33;;;;;;;11.73;6.13;;;;;;;;;;5098155;27;20043;-69
2023/06/10 03:01:00;;;;;;;12.73;6.30;;;;;;;;;;5095026;27;20055;-69
2023/06/10 03:03:27;;;;;;;9.88;6.05;;;;;;;;;;5112701;27;20049;-69
2023/06/10 03:05:54;;;;;;;13.25;6.50;;;;;;;;;;5114280;27;20047;-69
2023/06/10 03:08:20;;;;;;;12.63;7.05;;;;;;;;;;5095220;28;20043;-69
2023/06/10 03:10:46;;;;;;;13.48;6.75;;;;;;;;;;5093387;27;20056;-69
2023/06/10 03:13:12;;;;;;;10.88;6.60;;;;;;;;;;5113902;27;20040;-69
2023/06/10 03:15:40;;;;;;;11.88;6.63;;;;;;;;;;5111434;27;20122;-69
2023/06/10 03:18:07;;;;;;;13.52;6.10;;;;;;;;;;5116983;27;20044;-69
2023/06/10 03:20:36;;;;;;;11.82;5.85;;;;;;;;;;5108387;27;20054;-69
2023/06/10 03:23:03;;;;;;;11.93;6.43;;;;;;;;;;5093567;27;22173;-69
2023/06/10 03:25:30;;;;;;;13.27;6.45;;;;;;;;;;5110472;27;20085;-69
2023/06/10 03:27:56;;;;;;;11.23;6.28;;;;;;;;;;5126100;27;20062;-69
2023/06/10 03:30:22;;;;;;;11.35;6.18;;;;;;;;;;5123121;27;20039;-69
2023/06/10 03:32:49;;;;;;;13.15;6.60;;;;;;;;;;5116063;27;20043;-69
2023/06/10 03:35:15;;;;;;;11.43;6.78;;;;;;;;;;5100528;27;20551;-69
2023/06/10 03:37:41;;;;;;;12.88;6.07;;;;;;;;;;5110539;27;20073;-69
2023/06/10 03:40:08;;;;;;;10.75;6.35;;;;;;;;;;5128001;27;20185;-69
2023/06/10 03:42:35;;;;;;;14.68;6.20;;;;;;;;;;5109654;27;20390;-69
2023/06/10 03:45:01;;;;;;;15.13;6.90;;;;;;;;;;5129734;27;20406;-69
2023/06/10 03:47:34;;;;;;;9.52;5.80;;;;;;;;;;5088697;27;20145;-69
2023/06/10 03:50:00;;;;;;;14.63;6.10;;;;;;;;;;5105168;28;20039;-69
2023/06/10 03:52:27;;;;;;;10.95;6.20;;;;;;;;;;5122566;27;20165;-69
2023/06/10 03:54:53;;;;;;;8.43;5.30;;;;;;;;;;5126413;27;20043;-69
2023/06/10 03:57:19;;;;;;;13.15;5.78;;;;;;;;;;5087803;27;20435;-69
2023/06/10 03:59:45;;;;;;;9.90;5.10;;;;;;;;;;5108217;27;20039;-69
2023/06/10 04:02:11;;;;;;;15.35;6.00;;;;;;;;;;5108308;27;20047;-69
2023/06/10 04:04:38;;;;;;;9.93;5.38;;;;;;;;;;5112103;27;20039;-69
2023/06/10 04:07:05;;;;;;;13.23;5.80;;;;;;;;;;5119072;28;20082;-69
2023/06/10 04:09:31;;;;;;;10.93;5.50;;;;;;;;;;5112103;28;20121;-69
2023/06/10 04:11:57;;;;;;;14.20;5.30;;;;;;;;;;5109004;28;20149;-69
2023/06/10 04:14:24;;;;;;;9.80;5.45;;;;;;;;;;5128592;27;20119;-69
2023/06/10 04:16:51;;;;;;;10.45;5.45;;;;;;;;;;5131271;27;20039;-69
2023/06/10 04:19:17;;;;;;;12.35;5.40;;;;;;;;;;5114208;28;20649;-69
2023/06/10 04:21:43;;;;;;;14.05;6.22;;;;;;;;;;5112411;27;20506;-69
2023/06/10 04:24:09;;;;;;;10.13;4.72;;;;;;;;;;5124918;27;20044;-66
2023/06/10 04:26:36;;;;;;;11.10;5.28;;;;;;;;;;5115454;27;20115;-66
2023/06/10 04:29:03;;;;;;;10.23;5.45;;;;;;;;;;5118494;27;20059;-70
2023/06/10 04:31:29;;;;;;;13.55;6.35;;;;;;;;;;5129132;27;20097;-69
2023/06/10 04:33:55;;;;;;;10.88;4.82;;;;;;;;;;5119485;27;20043;-69
2023/06/10 04:36:21;;;;;;;10.18;5.47;;;;;;;;;;5133602;27;20039;-69
2023/06/10 04:38:47;;;;;;;13.25;6.30;;;;;;;;;;5137331;27;20099;-69
2023/06/10 04:41:14;;;;;;;8.90;4.88;;;;;;;;;;5149117;27;20041;-69
2023/06/10 04:43:40;;;;;;;12.65;6.03;;;;;;;;;;5121205;27;20166;-69
2023/06/10 04:46:06;;;;;;;12.88;5.78;;;;;;;;;;5117503;27;20072;-69
2023/06/10 04:48:35;;;;;;;12.48;5.32;;;;;;;;;;5134187;27;20511;-67
2023/06/10 04:51:01;;;;;;;10.98;5.60;;;;;;;;;;5121714;27;20065;-66
2023/06/10 04:53:28;;;;;;;12.35;5.63;;;;;;;;;;5135342;27;20039;-67
2023/06/10 04:55:54;;;;;;;14.57;7.07;;;;;;;;;;5133878;27;20063;-67
2023/06/10 04:58:20;;;;;;;12.75;5.80;;;;;;;;;;5135891;27;20387;-66
2023/06/10 05:00:47;;;;;;;13.02;5.88;;;;;;;;;;5130629;27;20054;-66
2023/06/10 05:03:13;;;;;;;15.10;6.13;;;;;;;;;;5128615;27;20450;-66
2023/06/10 05:05:39;;;;;;;14.48;6.22;;;;;;;;;;5141994;27;20091;-66
2023/06/10 05:08:06;;;;;;;12.82;5.85;;;;;;;;;;5118690;27;20497;-66
2023/06/10 05:10:34;;;;;;;13.45;6.28;;;;;;;;;;5122145;27;20097;-66
2023/06/10 05:13:00;;;;;;;17.13;6.80;;;;;;;;;;5139346;27;20114;-66
2023/06/10 05:15:26;;;;;;;13.05;6.10;;;;;;;;;;5149344;27;20505;-65
2023/06/10 05:17:52;;;;;;;10.70;6.15;;;;;;;;;;5137767;27;20096;-66
2023/06/10 05:20:19;;;;;;;12.43;7.00;;;;;;;;;;5128747;27;20404;-66
2023/06/10 05:22:46;;;;;;;12.65;6.30;;;;;;;;;;5133483;27;20075;-66
2023/06/10 05:25:12;;;;;;;10.20;6.15;;;;;;;;;;5136689;27;20043;-66
2023/06/10 05:27:40;;;;;;;13.45;5.82;;;;;;;;;;5142201;27;20451;-66
2023/06/10 05:30:07;;;;;;;12.18;6.30;;;;;;;;;;5136217;27;20046;-66
2023/06/10 05:32:33;;;;;;;16.08;6.90;;;;;;;;;;5129979;27;20046;-66
2023/06/10 05:35:00;;;;;;;13.02;6.20;;;;;;;;;;5115251;27;20054;-66
2023/06/10 05:37:27;;;;;;;13.50;6.13;;;;;;;;;;5127306;27;20729;-66
2023/06/10 05:39:53;;;;;;;16.33;7.55;;;;;;;;;;5128015;27;20043;-66
2023/06/10 05:42:19;;;;;;;14.98;6.72;;;;;;;;;;5113258;27;20474;-65
2023/06/10 05:44:45;;;;;;;14.20;6.63;;;;;;;;;;5132308;27;20099;-67
2023/06/10 05:47:12;;;;;;;15.63;7.78;;;;;;;;;;5110053;27;20443;-65
2023/06/10 05:49:38;;;;;;;13.63;6.50;;;;;;;;;;5123678;27;20058;-69
2023/06/10 05:52:04;;;;;;;11.57;5.95;;;;;;;;;;5138555;27;20074;-69
2023/06/10 05:54:30;;;;;;;14.35;7.05;;;;;;;;;;5115241;27;20461;-69
2023/06/10 05:56:57;;;;;;;12.70;6.65;;;;;;;;;;5135054;27;20035;-69
2023/06/10 05:59:23;;;;;;;16.60;7.68;;;;;;;;;;5131727;27;20039;-69
2023/06/10 06:01:50;;;;;;;15.55;7.45;;;;;;;;;;5120615;27;20444;-69
2023/06/10 06:04:16;;;;;;;17.77;7.03;;;;;;;;;;5116665;27;20039;-69
2023/06/10 06:06:42;;;;;;;13.90;6.40;;;;;;;;;;5140531;27;20054;-69
2023/06/10 06:09:08;;;;;;;14.68;6.75;;;;;;;;;;5115865;27;20046;-69
2023/06/10 06:11:35;;;;;;;15.43;6.93;;;;;;;;;;5142043;27;20064;-69
2023/06/10 06:14:01;;;;;;;15.02;6.50;;;;;;;;;;5111487;27;20567;-69
2023/06/10 06:16:28;;;;;;;10.85;6.35;;;;;;;;;;5134323;27;20122;-69
2023/06/10 06:18:54;;;;;;;10.20;5.43;;;;;;;;;;5117520;27;20575;-70
2023/06/10 06:21:20;;;;;;;11.63;6.07;;;;;;;;;;5133936;27;20055;-69
2023/06/10 06:23:46;;;;;;;12.25;6.43;;;;;;;;;;5115836;27;20115;-69
2023/06/10 06:26:12;;;;;;;22.38;6.15;;;;;;;;;;5134879;27;20035;-69
2023/06/10 06:28:38;;;;;;;15.75;6.47;;;;;;;;;;5133532;27;20074;-69
2023/06/10 06:31:05;;;;;;;12.90;6.00;;;;;;;;;;5133025;27;20398;-69
2023/06/10 06:33:31;;;;;;;13.15;6.10;;;;;;;;;;5136101;27;20054;-69
2023/06/10 06:35:57;;;;;;;14.20;6.22;;;;;;;;;;5137177;27;20538;-69
2023/06/10 06:38:23;;;;;;;11.27;6.03;;;;;;;;;;5108326;27;20042;-69
2023/06/10 06:40:50;;;;;;;13.27;5.78;;;;;;;;;;5146727;27;20039;-70
2023/06/10 06:43:17;;;;;;;14.07;6.32;;;;;;;;;;5114218;27;20043;-69
2023/06/10 06:45:43;;;;;;;12.75;5.90;;;;;;;;;;5113918;27;20038;-69
2023/06/10 06:48:09;;;;;;;13.95;6.20;;;;;;;;;;5113468;27;20046;-69
2023/06/10 06:50:35;;;;;;;11.35;5.88;;;;;;;;;;5133785;27;20378;-69
2023/06/10 06:53:02;;;;;;;10.90;5.43;;;;;;;;;;5115793;27;20069;-69
2023/06/10 06:55:28;;;;;;;14.18;6.05;;;;;;;;;;5114318;27;20542;-69
2023/06/10 06:57:55;;;;;;;9.95;5.53;;;;;;;;;;5115179;27;20042;-69
2023/06/10 07:00:21;;;;;;;15.23;5.95;;;;;;;;;;5121364;27;20126;-69
2023/06/10 07:02:47;;;;;;;13.43;5.75;;;;;;;;;;5130413;27;20039;-69
2023/06/10 07:05:14;;;;;;;15.85;6.60;;;;;;;;;;5117746;27;20117;-69
2023/06/10 07:07:40;;;;;;;10.43;5.15;;;;;;;;;;5142024;27;20058;-69
2023/06/10 07:10:06;;;;;;;13.48;6.38;;;;;;;;;;5112883;27;20061;-69
2023/06/10 07:12:32;;;;;;;11.40;5.50;;;;;;;;;;5134936;27;20043;-69
2023/06/10 07:14:59;;;;;;;12.80;6.32;;;;;;;;;;5135460;27;20051;-69
2023/06/10 07:17:26;;;;;;;11.07;6.28;;;;;;;;;;5119186;27;20043;-69
2023/06/10 07:19:53;;;;;;;12.48;5.65;;;;;;;;;;5143618;27;20038;-70
2023/06/10 07:22:19;;;;;;;10.18;5.35;;;;;;;;;;5119799;27;20134;-69
2023/06/10 07:24:45;;;;;;;10.10;5.90;;;;;;;;;;5136740;27;20043;-70
2023/06/10 07:27:12;;;;;;;9.15;5.22;;;;;;;;;;5137933;27;20363;-69
2023/06/10 07:29:38;;;;;;;9.95;5.05;;;;;;;;;;5116830;27;20058;-69
2023/06/10 07:32:04;;;;;;;13.70;5.47;;;;;;;;;;5122370;27;20084;-70
2023/06/10 07:34:30;;;;;;;15.27;5.05;;;;;;;;;;5120912;27;20072;-69
2023/06/10 07:36:57;;;;;;;14.82;5.28;;;;;;;;;;5136381;27;20118;-69
2023/06/10 07:39:24;;;;;;;12.02;5.50;;;;;;;;;;5123200;27;20043;-69
2023/06/10 07:41:53;;;;;;;11.40;5.22;;;;;;;;;;5114550;28;20142;-69
2023/06/10 07:44:20;;;;;;;11.05;4.45;;;;;;;;;;5112792;27;20081;-70
2023/06/10 07:46:46;;;;;;;12.18;4.88;;;;;;;;;;5132880;27;20074;-70
2023/06/10 07:49:12;;;;;;;12.07;5.50;;;;;;;;;;5108508;27;20122;-69
2023/06/10 07:51:38;;;;;;;9.77;5.10;;;;;;;;;;5125754;27;20039;-69
2023/06/10 07:54:04;;;;;;;9.82;4.93;;;;;;;;;;5112805;27;20046;-71
2023/06/10 07:56:31;;;;;;;14.45;5.20;;;;;;;;;;5114519;28;20043;-69
2023/06/10 07:58:57;;;;;;;10.93;5.03;;;;;;;;;;5119178;27;20081;-69
2023/06/10 08:01:24;;;;;;;9.85;4.32;;;;;;;;;;5117551;27;20038;-69
2023/06/10 08:03:50;;;;;;;12.18;5.40;;;;;;;;;;5118623;27;20479;-69
2023/06/10 08:06:17;;;;;;;10.50;4.85;;;;;;;;;;5123275;27;20058;-69
2023/06/10 08:08:43;;;;;;;10.55;4.90;;;;;;;;;;5140672;27;20027;-69
2023/06/10 08:11:11;;;;;;;7.68;4.05;;;;;;;;;;5138580;27;20047;-69
2023/06/10 08:13:37;;;;;;;8.30;4.50;;;;;;;;;;5113429;28;20050;-69
2023/06/10 08:16:04;;;;;;;11.30;4.65;;;;;;;;;;5113679;28;20054;-69
2023/06/10 08:18:30;;;;;;;10.60;4.63;;;;;;;;;;5132378;28;20036;-69
2023/06/10 08:20:57;;;;;;;10.60;4.43;;;;;;;;;;5113479;28;20043;-69
2023/06/10 08:23:23;;;;;;;8.63;4.65;;;;;;;;;;5116801;27;20077;-69
2023/06/10 08:25:49;;;;;;;8.43;5.28;;;;;;;;;;5113894;28;20054;-69
2023/06/10 08:28:15;;;;;;;9.15;4.40;;;;;;;;;;5105248;28;20398;-69
2023/06/10 08:30:42;;;;;;;11.80;4.60;;;;;;;;;;5112228;28;20058;-69
2023/06/10 08:33:08;;;;;;;9.93;3.95;;;;;;;;;;5088866;28;20047;-69
2023/06/10 08:35:34;;;;;;;7.53;4.45;;;;;;;;;;5092982;28;20433;-69
2023/06/10 08:38:00;;;;;;;9.05;5.35;;;;;;;;;;5082061;28;20083;-70
2023/06/10 08:40:26;;;;;;;13.25;5.10;;;;;;;;;;5089590;28;20116;-69
2023/06/10 08:43:05;;;;;;;9.45;4.70;;;;;;;;;;5094267;28;20040;-69
2023/06/10 08:45:32;;;;;;;9.18;4.32;;;;;;;;;;5110308;28;20043;-69
2023/06/10 08:47:58;;;;;;;11.07;5.07;;;;;;;;;;5115209;28;20036;-69
2023/06/10 08:50:24;;;;;;;8.18;4.47;;;;;;;;;;5121807;28;20035;-69
2023/06/10 08:52:54;;;;;;;8.95;4.55;;;;;;;;;;5111819;28;20039;-69
2023/06/10 08:55:40;;;;;;;13.02;5.03;;;;;;;;;;5116735;28;20039;-69
2023/06/10 08:58:07;;;;;;;8.57;4.88;;;;;;;;;;5127501;27;20032;-69
2023/06/10 09:00:34;;;;;;;11.63;4.82;;;;;;;;;;5110603;28;21417;-69
2023/06/10 09:03:02;;;;;;;10.40;5.25;;;;;;;;;;5091763;28;20040;-70
2023/06/10 09:05:29;;;;;;;8.90;4.40;;;;;;;;;;5108085;28;20455;-69
2023/06/10 09:07:56;;;;;;;7.75;4.35;;;;;;;;;;5120094;28;20135;-70
2023/06/10 09:10:23;;;;;;;8.68;4.32;;;;;;;;;;5092469;28;20040;-69
2023/06/10 09:12:49;;;;;;;10.95;4.68;;;;;;;;;;5080716;28;20088;-69
2023/06/10 09:15:17;;;;;;;11.07;4.43;;;;;;;;;;5114374;27;20035;-70
2023/06/10 09:17:44;;;;;;;11.02;4.68;;;;;;;;;;5096330;28;20383;-69
2023/06/10 09:20:11;;;;;;;10.00;4.57;;;;;;;;;;5101861;27;20371;-69
2023/06/10 09:22:37;;;;;;;12.75;4.38;;;;;;;;;;5112562;27;20050;-69
2023/06/10 09:25:08;;;;;;;10.07;4.75;;;;;;;;;;5113427;27;20040;-69
2023/06/10 09:27:49;;;;;;;8.77;4.60;;;;;;;;;;5116846;27;20043;-69
2023/06/10 09:30:26;;;;;;;7.05;3.50;;;;;;;;;;5117032;27;20047;-69
2023/06/10 09:32:55;;;;;;;9.52;4.40;;;;;;;;;;5116532;27;20505;-70
2023/06/10 09:35:21;;;;;;;9.60;4.72;;;;;;;;;;5138162;27;20047;-69
2023/06/10 09:37:50;;;;;;;11.00;4.97;;;;;;;;;;5131067;27;20035;-69
2023/06/10 09:40:16;;;;;;;9.95;4.50;;;;;;;;;;5126965;27;20076;-69
2023/06/10 09:42:42;;;;;;;12.90;4.82;;;;;;;;;;5135281;27;20039;-70
2023/06/10 09:45:09;;;;;;;9.05;4.50;;;;;;;;;;5136588;27;20053;-70
2023/06/10 09:47:35;;;;;;;12.75;4.03;;;;;;;;;;5134539;27;20113;-70
2023/06/10 09:50:02;;;;;;;7.05;3.63;;;;;;;;;;5134756;27;20131;-70
2023/06/10 09:52:29;;;;;;;7.65;3.75;;;;;;;;;;5134995;27;20292;-70
2023/06/10 09:55:00;;;;;;;8.00;3.75;;;;;;;;;;5123193;27;20054;-70
2023/06/10 09:57:26;;;;;;;6.43;3.72;;;;;;;;;;5131799;27;20043;-70
2023/06/10 09:59:54;;;;;;;6.65;3.30;;;;;;;;;;5116050;27;20134;-70
2023/06/10 10:02:20;;;;;;;8.43;3.60;;;;;;;;;;5118927;27;20123;-70
2023/06/10 10:04:47;;;;;;;8.00;3.95;;;;;;;;;;5140028;27;20051;-70
2023/06/10 10:07:13;;;;;;;8.02;4.05;;;;;;;;;;5116213;27;20122;-70
2023/06/10 10:09:40;;;;;;;6.38;3.58;;;;;;;;;;5116257;27;20126;-70
2023/06/10 10:12:16;;;;;;;8.23;3.60;;;;;;;;;;5132565;27;20106;-70
2023/06/10 10:14:46;;;;;;;7.75;3.72;;;;;;;;;;5115926;27;20046;-70
2023/06/10 10:17:14;;;;;;;8.40;3.20;;;;;;;;;;5122090;27;20051;-70
2023/06/10 10:19:44;;;;;;;7.93;3.97;;;;;;;;;;5128892;27;20032;-70
2023/06/10 10:22:15;;;;;;;5.85;3.22;;;;;;;;;;5134377;27;20403;-70
2023/06/10 10:24:51;;;;;;;7.97;3.22;;;;;;;;;;5115201;27;20070;-70
2023/06/10 10:27:33;;;;;;;7.22;3.35;;;;;;;;;;5133479;27;20047;-70
2023/06/10 10:30:00;;;;;;;;;;;;;;;;;;5117364;27;20111;-70
2023/06/10 10:32:52;;;;;;;6.45;3.38;;;;;;;;;;5124793;27;19955;-70
2023/06/10 10:35:24;;;;;;;8.10;3.65;;;;;;;;;;5079487;27;20105;-70
2023/06/10 10:37:54;;;;;;;7.85;3.13;;;;;;;;;;5106204;28;20083;-70
2023/06/10 10:40:24;;;;;;;6.80;3.25;;;;;;;;;;5129319;27;20091;-70
2023/06/10 10:42:51;;;;;;;8.27;4.25;;;;;;;;;;5115762;27;20123;-68
2023/06/10 10:45:17;;;;;;;7.32;3.25;;;;;;;;;;5139866;27;20078;-68
2023/06/10 10:47:45;;;;;;;8.05;3.13;;;;;;;;;;5133055;27;20088;-68
2023/06/10 10:50:18;;;;;;;8.55;3.67;;;;;;;;;;5133732;27;20053;-68
2023/06/10 10:52:54;;;;;;;6.70;3.55;;;;;;;;;;5116006;27;20427;-68
2023/06/10 10:55:20;;;;;;;7.72;3.30;;;;;;;;;;5114783;27;20050;-68
2023/06/10 10:57:55;;;;;;;6.90;3.13;;;;;;;;;;5133609;27;20389;-68
2023/06/10 11:00:28;;;;;;;6.43;3.22;;;;;;;;;;5135016;27;20122;-68
2023/06/10 11:02:57;;;;;;;7.20;3.22;;;;;;;;;;5133909;27;20448;-68
2023/06/10 11:05:32;;;;;;;6.47;3.13;;;;;;;;;;5133057;27;20439;-68
2023/06/10 11:07:58;;;;;;;5.45;2.78;;;;;;;;;;5113633;27;20040;-68
2023/06/10 11:10:29;;;;;;;5.15;2.60;;;;;;;;;;5136686;27;20150;-67
2023/06/10 11:12:57;;;;;;;6.22;2.83;;;;;;;;;;5121013;27;20536;-67
2023/06/10 11:15:27;;;;;;;5.65;2.60;;;;;;;;;;5115227;27;20107;-67
2023/06/10 11:18:11;;;;;;;6.68;2.90;;;;;;;;;;5137839;27;20039;-66
2023/06/10 11:20:50;;;;;;;6.47;3.20;;;;;;;;;;5133100;27;20508;-79
2023/06/10 11:23:28;;;;;;;5.70;2.83;;;;;;;;;;5112766;27;20032;-79
2023/06/10 11:26:13;;;;;;;6.13;2.50;;;;;;;;;;5148421;27;20099;-65
2023/06/10 11:29:01;;;;;;;9.55;2.90;;;;;;;;;;5101516;27;20055;-67
2023/06/10 11:31:29;;;;;;;8.93;3.17;;;;;;;;;;5115278;27;20039;-67
2023/06/10 11:33:55;;;;;;;5.10;2.58;;;;;;;;;;5136086;27;20409;-67
2023/06/10 11:36:22;;;;;;;7.78;2.75;;;;;;;;;;5109378;27;20092;-67
2023/06/10 11:38:48;;;;;;;6.82;2.65;;;;;;;;;;5134073;27;20113;-67
2023/06/10 11:41:15;;;;;;;5.15;2.58;;;;;;;;;;5136346;27;20054;-68
2023/06/10 11:43:43;;;;;;;6.22;3.05;;;;;;;;;;5113483;27;20064;-67
2023/06/10 11:46:10;;;;;;;4.53;2.63;;;;;;;;;;5125315;27;20043;-67
2023/06/10 11:48:36;;;;;;;7.88;2.92;;;;;;;;;;5113592;27;20057;-67
2023/06/10 11:51:06;;;;;;;5.78;2.30;;;;;;;;;;5132084;27;20371;-67
2023/06/10 11:53:32;;;;;;;6.75;3.00;;;;;;;;;;5131847;27;20039;-67
2023/06/10 11:55:59;;;;;;;5.55;2.65;;;;;;;;;;5104926;27;20551;-67
2023/06/10 11:58:25;;;;;;;5.75;2.78;;;;;;;;;;5119181;27;20047;-67
2023/06/10 12:00:53;;;;;;;6.43;2.40;;;;;;;;;;5114382;28;20051;-67
2023/06/10 12:03:19;;;;;;;5.78;2.70;;;;;;;;;;5119273;28;20082;-67
2023/06/10 12:05:58;;;;;;;13.60;4.38;;;;;;;;;;5131900;28;20133;-67
2023/06/10 12:08:25;;;;;;;7.72;3.30;;;;;;;;;;5123403;27;20042;-67
2023/06/10 12:10:51;;;;;;;8.32;3.42;;;;;;;;;;5132614;28;20082;-68
2023/06/10 12:13:20;;;;;;;8.38;3.40;;;;;;;;;;5131880;28;20050;-67
2023/06/10 12:15:47;;;;;;;9.23;3.20;;;;;;;;;;5131385;28;20035;-67
2023/06/10 12:18:20;;;;;;;9.07;3.60;;;;;;;;;;5115961;27;20114;-67
2023/06/10 12:20:46;;;;;;;10.82;3.50;;;;;;;;;;5130553;27;20038;-67
2023/06/10 12:23:13;;;;;;;9.65;3.47;;;;;;;;;;5132599;28;20035;-67
2023/06/10 12:25:41;;;;;;;9.20;3.92;;;;;;;;;;5131700;28;20088;-67
2023/06/10 12:28:11;;;;;;;11.32;3.92;;;;;;;;;;5130645;27;20043;-67
2023/06/10 12:30:37;;;;;;;16.15;4.65;;;;;;;;;;5130883;27;20044;-67
2023/06/10 12:33:03;;;;;;;7.35;3.33;;;;;;;;;;5135887;27;20082;-67
2023/06/10 12:35:29;;;;;;;7.88;3.78;;;;;;;;;;5132355;28;20047;-67
2023/06/10 12:38:01;;;;;;;9.73;3.70;;;;;;;;;;5126967;27;20347;-67
2023/06/10 12:40:31;;;;;;;7.72;3.92;;;;;;;;;;5112158;28;20043;-68
2023/06/10 12:42:58;;;;;;;11.57;4.30;;;;;;;;;;5112768;27;20054;-68
2023/06/10 12:45:32;;;;;;;8.93;3.67;;;;;;;;;;5117921;28;20047;-67
2023/06/10 12:48:08;;;;;;;12.00;3.67;;;;;;;;;;5114508;27;20125;-67
2023/06/10 12:50:36;;;;;;;8.75;3.92;;;;;;;;;;5117030;27;20078;-67
2023/06/10 12:53:03;;;;;;;11.02;3.60;;;;;;;;;;5120137;27;20395;-67
2023/06/10 12:55:30;;;;;;;10.98;3.60;;;;;;;;;;5135418;27;20039;-67
2023/06/10 12:57:57;;;;;;;9.10;3.60;;;;;;;;;;5135220;27;20490;-67
2023/06/10 13:00:25;;;;;;;10.25;3.83;;;;;;;;;;5135423;27;20607;-67
2023/06/10 13:02:52;;;;;;;8.73;3.63;;;;;;;;;;5127818;27;20085;-67
2023/06/10 13:05:20;;;;;;;7.57;3.38;;;;;;;;;;5114087;27;20055;-76
2023/06/10 13:07:46;;;;;;;10.77;3.80;;;;;;;;;;5128205;27;20074;-67
2023/06/10 13:10:13;;;;;;;10.40;3.83;;;;;;;;;;5132503;27;20162;-67
2023/06/10 13:12:40;;;;;;;7.65;3.45;;;;;;;;;;5135515;27;20505;-67
2023/06/10 13:15:06;;;;;;;10.20;3.92;;;;;;;;;;5134581;27;20089;-67
2023/06/10 13:17:35;;;;;;;7.90;3.28;;;;;;;;;;5135526;27;20066;-67
2023/06/10 13:20:05;;;;;;;9.35;3.97;;;;;;;;;;5121219;27;20421;-67
2023/06/10 13:22:32;;;;;;;7.32;3.30;;;;;;;;;;5116390;27;20043;-67
2023/06/10 13:25:06;;;;;;;11.73;3.22;;;;;;;;;;5116774;27;20489;-67
2023/06/10 13:27:33;;;;;;;7.65;3.22;;;;;;;;;;5123756;27;20085;-67
2023/06/10 13:29:59;;;;;;;12.15;4.40;;;;;;;;;;5131767;27;20078;-67
2023/06/10 13:32:25;;;;;;;12.23;3.80;;;;;;;;;;5133608;27;20040;-67
2023/06/10 13:34:53;;;;;;;9.50;2.80;;;;;;;;;;5125822;27;20088;-67
2023/06/10 13:37:19;;;;;;;9.15;3.15;;;;;;;;;;5110605;27;20050;-67
2023/06/10 13:39:48;;;;;;;9.73;3.72;;;;;;;;;;5120202;27;20047;-67
2023/06/10 13:42:15;;;;;;;9.13;3.15;;;;;;;;;;5115833;27;20054;-67
2023/06/10 13:44:41;;;;;;;8.05;3.33;;;;;;;;;;5121152;27;20090;-67
2023/06/10 13:47:07;;;;;;;7.65;3.10;;;;;;;;;;5115800;27;20050;-67
2023/06/10 13:49:33;;;;;;;9.82;2.97;;;;;;;;;;5128499;27;20043;-67
2023/06/10 13:51:59;;;;;;;9.20;3.42;;;;;;;;;;5105171;28;20051;-67
2023/06/10 13:54:26;;;;;;;7.63;2.72;;;;;;;;;;5131816;27;20053;-67
2023/06/10 13:56:53;;;;;;;9.80;3.22;;;;;;;;;;5114847;27;20127;-67
2023/06/10 13:59:20;;;;;;;5.47;2.72;;;;;;;;;;5114930;27;20471;-67
2023/06/10 14:01:46;;;;;;;9.93;3.47;;;;;;;;;;5114520;27;20050;-67
2023/06/10 14:04:12;;;;;;;7.38;2.70;;;;;;;;;;5134031;27;20055;-67
2023/06/10 14:06:38;;;;;;;9.98;2.45;;;;;;;;;;5128839;27;20118;-67
2023/06/10 14:09:04;;;;;;;7.32;3.13;;;;;;;;;;5116681;27;20065;-67
2023/06/10 14:11:31;;;;;;;9.32;3.50;;;;;;;;;;5113488;27;20084;-67
2023/06/10 14:13:57;;;;;;;8.85;3.22;;;;;;;;;;5134519;27;20157;-67
2023/06/10 14:16:24;;;;;;;9.35;3.13;;;;;;;;;;5137268;27;20034;-67
2023/06/10 14:18:50;;;;;;;9.25;3.10;;;;;;;;;;5131483;27;20031;-67
2023/06/10 14:21:17;;;;;;;12.60;3.40;;;;;;;;;;5132970;27;20071;-67
2023/06/10 14:23:44;;;;;;;10.93;4.22;;;;;;;;;;5143932;27;20045;-67
2023/06/10 14:26:10;;;;;;;8.57;3.10;;;;;;;;;;5114604;27;20129;-67
2023/06/10 14:28:36;;;;;;;8.43;3.13;;;;;;;;;;5115087;27;20074;-67
2023/06/10 14:31:02;;;;;;;9.35;3.08;;;;;;;;;;5120948;27;20077;-67
2023/06/10 14:33:30;;;;;;;8.68;2.85;;;;;;;;;;5135699;27;20039;-67
2023/06/10 14:35:57;;;;;;;7.68;3.30;;;;;;;;;;5133589;27;20426;-67
2023/06/10 14:38:23;;;;;;;9.15;3.58;;;;;;;;;;5115742;27;20122;-66